VNO weather

Vilnius International Airport
Vilnius, Vilnius County, Lithuania

Public forecast

Using degrees Celsius for public forecast. Weather courtesy of forecast.io.

METAR (pilot weather report)

Retrieved 2019/05/25 23:20 UTC (0 seconds ago):

EYVI 252320Z 30008KT 260V330 9999 BKN029 11/04 Q1010 NOSIG

TAF (pilot weather forecast)

Retrieved 2019/05/25 18:33 UTC (5 hours ago):

TAF TAF COR EYVI 251727Z 2518/2618 27010KT 6000 SCT010 BKN025 TEMPO 2521/2606 SCT005 BKN015 BECMG 2608/2609 25018G28KT BKN035 TEMPO 2616/2618 -SHRA BKN020CB